Time;durP1;ratioP1;P1;durP2;ratioP2;P2;SDS_P1;SDS_P2;PMS_P1;PMS_P2;Temp;Humidity;BMP_temperature;BMP_pressure;BME280_temperature;BME280_humidity;BME280_pressure;Samples;Min_cycle;Max_cycle;Signal;HPM_P1;HPM_P2
2022/11/19 00:01:06;;;;;;;27.85;13.80;;;;;;;6.63;nan;99466.91;5027085;28;20096;-74
2022/11/19 00:03:34;;;;;;;29.15;15.15;;;;;;;6.71;nan;99480.50;5007884;28;20047;-73
2022/11/19 00:06:09;;;;;;;28.15;14.85;;;;;;;6.55;nan;99483.72;5004259;28;20034;-73
2022/11/19 00:08:35;;;;;;;25.50;14.77;;;;;;;6.46;nan;99485.03;5016400;28;20034;-73
2022/11/19 00:11:14;;;;;;;25.55;14.15;;;;;;;6.54;nan;99497.84;5008072;28;20537;-74
2022/11/19 00:13:41;;;;;;;28.55;14.15;;;;;;;6.55;nan;99500.22;5002877;28;20069;-74
2022/11/19 00:16:12;;;;;;;28.15;14.85;;;;;;;6.56;nan;99516.69;5024688;28;20108;-74
2022/11/19 00:18:39;;;;;;;27.40;14.88;;;;;;;6.59;nan;99522.31;5012740;28;20032;-74
2022/11/19 00:21:10;;;;;;;27.85;14.70;;;;;;;6.59;nan;99529.34;5025219;28;20510;-73
2022/11/19 00:23:36;;;;;;;25.88;14.02;;;;;;;6.31;nan;99493.28;5006139;28;20124;-73
2022/11/19 00:26:08;;;;;;;24.88;14.10;;;;;;;6.36;nan;99524.78;5020679;28;20032;-73
2022/11/19 00:28:35;;;;;;;30.88;15.90;;;;;;;6.26;nan;99529.72;5022994;28;20471;-73
2022/11/19 00:31:09;;;;;;;27.85;15.65;;;;;;;6.37;nan;99547.31;5009063;28;20474;-73
2022/11/19 00:33:35;;;;;;;31.15;15.80;;;;;;;6.36;nan;99541.25;5007755;28;20057;-73
2022/11/19 00:36:01;;;;;;;29.50;16.15;;;;;;;6.41;nan;99555.50;5009203;28;20507;-73
2022/11/19 00:38:28;;;;;;;29.88;16.17;;;;;;;6.27;nan;99544.38;5027377;28;20057;-73
2022/11/19 00:40:53;;;;;;;36.60;17.77;;;;;;;6.29;nan;99556.22;5027614;28;20040;-73
2022/11/19 00:46:03;;;;;;;31.13;15.73;;;;;;;6.30;nan;99567.50;5026206;28;20043;-73
2022/11/19 00:48:28;;;;;;;32.92;16.50;;;;;;;6.41;nan;99577.22;5009025;28;20051;-73
2022/11/19 00:50:54;;;;;;;30.50;15.15;;;;;;;6.37;nan;99563.00;5027117;28;20029;-73
2022/11/19 00:53:19;;;;;;;31.10;16.48;;;;;;;6.41;nan;99569.38;5028117;28;20029;-73
2022/11/19 00:55:44;;;;;;;33.13;16.20;;;;;;;6.42;nan;99586.69;5027826;28;20761;-73
2022/11/19 00:58:10;;;;;;;29.60;15.82;;;;;;;6.34;nan;99581.72;5018734;28;20029;-72
2022/11/19 01:00:35;;;;;;;26.45;15.73;;;;;;;6.44;nan;99605.56;5026916;28;20095;-73
2022/11/19 01:03:01;;;;;;;31.60;15.45;;;;;;;6.28;nan;99583.41;5026989;28;20465;-73
2022/11/19 01:05:26;;;;;;;28.75;14.95;;;;;;;6.32;nan;99594.22;5006401;28;20036;-73
2022/11/19 01:07:52;;;;;;;30.13;15.80;;;;;;;6.46;nan;99618.41;5028480;28;20025;-74
2022/11/19 01:10:18;;;;;;;28.63;14.88;;;;;;;6.41;nan;99624.28;5025122;28;20032;-73
2022/11/19 01:15:27;;;;;;;24.25;13.90;;;;;;;6.36;nan;99635.41;5017174;28;20108;-74
2022/11/19 01:17:53;;;;;;;24.70;13.73;;;;;;;6.32;nan;99636.03;5035890;28;20032;-73
2022/11/19 01:20:18;;;;;;;25.40;14.02;;;;;;;6.25;nan;99637.91;5007876;28;20431;-72
2022/11/19 01:22:45;;;;;;;23.27;13.38;;;;;;;6.30;nan;99654.56;5029332;28;20441;-74
2022/11/19 01:25:10;;;;;;;26.38;13.45;;;;;;;6.30;nan;99646.72;5021033;28;20061;-74
2022/11/19 01:27:36;;;;;;;22.00;13.18;;;;;;;6.16;nan;99640.03;5025577;28;20056;-74
2022/11/19 01:30:01;;;;;;;24.48;13.35;;;;;;;6.08;nan;99641.09;5013711;28;20459;-73
2022/11/19 01:32:26;;;;;;;24.77;12.85;;;;;;;6.09;nan;99629.63;5013726;28;20113;-74
2022/11/19 01:34:52;;;;;;;24.63;13.65;;;;;;;6.12;nan;99642.25;5028654;28;20083;-73
2022/11/19 01:37:17;;;;;;;24.55;14.43;;;;;;;6.13;nan;99659.56;5030699;28;20482;-73
2022/11/19 01:39:43;;;;;;;25.92;14.45;;;;;;;5.86;nan;99637.22;5031739;28;20029;-72
2022/11/19 01:42:48;;;;;;;23.42;13.63;;;;;;;;;;5033811;28;20064;-73
2022/11/19 01:45:03;;;;;;;21.65;12.50;;;;;;;;;;5025885;28;20034;-72
2022/11/19 01:47:28;;;;;;;24.00;12.88;;;;;;;;;;5013579;28;20053;-72
2022/11/19 01:49:53;;;;;;;23.63;13.03;;;;;;;;;;5028213;28;20052;-72
2022/11/19 01:52:18;;;;;;;22.40;12.52;;;;;;;;;;5027180;28;20278;-73
2022/11/19 01:54:47;;;;;;;20.03;11.83;;;;;;;;;;5010863;28;20029;-74
2022/11/19 01:57:14;;;;;;;19.02;11.52;;;;;;;;;;5025881;28;20287;-74
2022/11/19 01:59:40;;;;;;;23.65;11.00;;;;;;;;;;5027980;28;20029;-74
2022/11/19 02:02:06;;;;;;;18.20;9.95;;;;;;;;;;5010845;28;20095;-74
2022/11/19 02:04:32;;;;;;;17.35;9.13;;;;;;;;;;5026841;28;20079;-73
2022/11/19 02:06:58;;;;;;;13.40;8.18;;;;;;;;;;5029508;28;20518;-74
2022/11/19 02:09:24;;;;;;;17.40;8.68;;;;;;;;;;5015571;28;20060;-73
2022/11/19 02:12:08;;;;;;;14.52;7.95;;;;;;;;;;5022892;28;20032;-73
2022/11/19 02:14:56;;;;;;;14.00;7.10;;;;;;;;;;5026728;28;20021;-73
2022/11/19 02:17:27;;;;;;;14.05;7.20;;;;;;;;;;5013206;28;20041;-74
2022/11/19 02:20:09;;;;;;;14.88;7.95;;;;;;;;;;5026487;28;20456;-73
2022/11/19 02:22:46;;;;;;;12.38;7.95;;;;;;;;;;5015096;28;20040;-73
2022/11/19 02:25:20;;;;;;;16.20;8.32;;;;;;;;;;5028078;28;20040;-73
2022/11/19 02:28:03;;;;;;;18.63;9.43;;;;;;;;;;5027005;28;20022;-74
2022/11/19 02:30:34;;;;;;;14.77;7.82;;;;;;;;;;5012634;28;20065;-74
2022/11/19 02:33:18;;;;;;;16.15;7.95;;;;;;;;;;5010320;28;20030;-73
2022/11/19 02:35:54;;;;;;;14.27;7.32;;;;;;;;;;5026139;28;20071;-72
2022/11/19 02:38:22;;;;;;;12.52;7.47;;;;;;;;;;5024285;28;20408;-73
2022/11/19 02:40:51;;;;;;;15.48;7.68;;;;;;;;;;5026780;28;20140;-73
2022/11/19 02:43:22;;;;;;;12.75;7.97;;;;;;;;;;5010005;28;20423;-74
2022/11/19 02:45:53;;;;;;;15.20;8.13;;;;;;;;;;5030472;28;20033;-74
2022/11/19 02:48:32;;;;;;;13.90;7.93;;;;;;;;;;5027456;28;20443;-73
2022/11/19 02:50:59;;;;;;;16.00;8.15;;;;;;;;;;5030887;28;20121;-73
2022/11/19 02:53:24;;;;;;;16.20;8.40;;;;;;;;;;5025767;28;20051;-73
2022/11/19 03:06:50;;;;;;;15.55;8.27;;;;;;;;;;5028615;28;20048;-74
2022/11/19 03:09:15;;;;;;;14.65;8.18;;;;;;;;;;5027152;28;20387;-75
2022/11/19 03:11:42;;;;;;;17.30;8.90;;;;;;;;;;5026270;28;20022;-74
2022/11/19 03:17:14;;;;;;;15.43;7.97;;;;;;;;;;5024944;28;20056;-75
2022/11/19 03:19:57;;;;;;;17.13;8.98;;;;;;;;;;5015016;28;20471;-74
2022/11/19 03:22:31;;;;;;;18.02;8.77;;;;;;;;;;5024573;28;20057;-73
2022/11/19 03:25:08;;;;;;;18.20;9.43;;;;;;;;;;5014169;28;20086;-74
2022/11/19 03:27:41;;;;;;;17.75;9.35;;;;;;;;;;5023862;28;20017;-74
2022/11/19 03:30:07;;;;;;;15.10;9.23;;;;;;;;;;5028920;28;20426;-74
2022/11/19 03:32:40;;;;;;;17.02;9.23;;;;;;;;;;5021056;28;20083;-74
2022/11/19 03:35:12;;;;;;;13.70;8.43;;;;;;;;;;5026143;28;20108;-74
2022/11/19 03:37:39;;;;;;;14.13;9.48;;;;;;;;;;5007964;28;20041;-74
2022/11/19 03:40:07;;;;;;;15.25;9.23;;;;;;;;;;5023254;28;20026;-73
2022/11/19 03:42:32;;;;;;;18.38;9.20;;;;;;;;;;5030555;28;20052;-74
2022/11/19 03:45:09;;;;;;;15.40;8.15;;;;;;;;;;5024686;28;20464;-74
2022/11/19 03:47:35;;;;;;;15.85;8.65;;;;;;;;;;5009161;28;20483;-73
2022/11/19 03:50:10;;;;;;;13.80;8.90;;;;;;;;;;5007849;28;20518;-74
2022/11/19 03:52:35;;;;;;;16.33;8.70;;;;;;;;;;5011687;28;20025;-74
2022/11/19 03:55:00;;;;;;;17.60;8.40;;;;;;;;;;5030044;28;20450;-74
2022/11/19 03:57:26;;;;;;;15.77;8.90;;;;;;;;;;5026249;28;20100;-74
2022/11/19 03:59:51;;;;;;;16.67;8.73;;;;;;;;;;5027065;28;20029;-74
2022/11/19 04:02:16;;;;;;;15.17;9.00;;;;;;;;;;5009048;28;20034;-73
2022/11/19 04:04:42;;;;;;;15.50;9.38;;;;;;;;;;5012436;28;20262;-75
2022/11/19 04:07:18;;;;;;;14.75;9.38;;;;;;;;;;5023311;28;20075;-74
2022/11/19 04:09:43;;;;;;;14.15;8.88;;;;;;;;;;5016960;28;20041;-73
2022/11/19 04:12:16;;;;;;;17.02;9.93;;;;;;;;;;5011547;28;20512;-74
2022/11/19 04:14:41;;;;;;;16.88;9.50;;;;;;;;;;5034337;28;20029;-74
2022/11/19 04:17:06;;;;;;;18.17;9.73;;;;;;;;;;5030139;28;20022;-74
2022/11/19 04:19:31;;;;;;;15.63;8.70;;;;;;;;;;5021176;28;20037;-74
2022/11/19 04:21:57;;;;;;;16.13;8.80;;;;;;;;;;5021981;28;20768;-74
2022/11/19 04:24:22;;;;;;;17.40;9.17;;;;;;;;;;5024493;28;20338;-73
2022/11/19 04:26:47;;;;;;;19.70;10.07;;;;;;;;;;5015487;28;20275;-74
2022/11/19 04:29:12;;;;;;;15.03;9.77;;;;;;;;;;5011723;28;20724;-74
2022/11/19 04:31:38;;;;;;;15.00;8.83;;;;;;;;;;5028597;28;20283;-75
2022/11/19 04:34:03;;;;;;;14.83;8.67;;;;;;;;;;5021181;28;20663;-74
2022/11/19 04:36:28;;;;;;;14.02;9.07;;;;;;;;;;5021375;28;20306;-74
2022/11/19 04:38:53;;;;;;;15.90;9.30;;;;;;;;;;5007146;28;20191;-74
2022/11/19 04:41:19;;;;;;;15.93;8.83;;;;;;;;;;5029300;28;20293;-74
2022/11/19 04:43:44;;;;;;;15.50;9.60;;;;;;;;;;5024813;28;20028;-74
2022/11/19 04:46:09;;;;;;;15.93;9.37;;;;;;;;;;5005323;28;20026;-73
2022/11/19 04:48:34;;;;;;;18.03;9.77;;;;;;;;;;5027057;28;20029;-73
2022/11/19 04:51:00;;;;;;;15.20;10.13;;;;;;;;;;5024698;28;20025;-74
2022/11/19 04:53:25;;;;;;;16.33;9.88;;;;;;;;;;5033990;28;20317;-74
2022/11/19 04:55:50;;;;;;;16.50;9.75;;;;;;;;;;5031126;28;20537;-74
2022/11/19 04:58:16;;;;;;;14.13;9.53;;;;;;;;;;5013421;28;20026;-74
2022/11/19 05:00:41;;;;;;;16.65;9.52;;;;;;;;;;5009930;28;20120;-74
2022/11/19 05:03:06;;;;;;;17.50;10.18;;;;;;;;;;5016328;28;20511;-74
2022/11/19 05:05:31;;;;;;;18.45;10.95;;;;;;;;;;5029458;28;20079;-73
2022/11/19 05:07:58;;;;;;;20.17;11.82;;;;;;;;;;5028805;28;20072;-74
2022/11/19 05:10:23;;;;;;;20.10;10.97;;;;;;;;;;5029856;28;20025;-74
2022/11/19 05:12:48;;;;;;;18.30;10.27;;;;;;;;;;5031591;28;20315;-73
2022/11/19 05:15:14;;;;;;;18.40;10.50;;;;;;;;;;5017870;28;20274;-74
2022/11/19 05:17:39;;;;;;;20.42;11.50;;;;;;;;;;5010469;28;20023;-74
2022/11/19 05:20:04;;;;;;;20.40;11.43;;;;;;;;;;5026040;28;20060;-74
2022/11/19 05:22:30;;;;;;;20.00;11.90;;;;;;;;;;5029871;28;20509;-74
2022/11/19 05:24:55;;;;;;;18.80;11.73;;;;;;;;;;5031777;28;20489;-74
2022/11/19 05:27:20;;;;;;;17.10;10.90;;;;;;;;;;5031073;28;20554;-75
2022/11/19 05:29:45;;;;;;;17.07;10.73;;;;;;;;;;5032520;28;20406;-75
2022/11/19 05:32:10;;;;;;;16.23;10.60;;;;;;;;;;5029441;28;20283;-74
2022/11/19 05:34:36;;;;;;;16.60;10.37;;;;;;;;;;5013345;28;20036;-74
2022/11/19 05:37:01;;;;;;;18.75;10.65;;;;;;;;;;5028125;28;20286;-74
2022/11/19 05:39:26;;;;;;;19.03;11.27;;;;;;;;;;5010475;28;20091;-74
2022/11/19 05:41:51;;;;;;;17.63;10.80;;;;;;;;;;5008986;28;20278;-75
2022/11/19 05:44:17;;;;;;;22.50;10.53;;;;;;;;;;5011990;28;20841;-74
2022/11/19 05:46:42;;;;;;;16.42;10.02;;;;;;;;;;5028697;28;20482;-74
2022/11/19 05:49:07;;;;;;;18.55;9.80;;;;;;;;;;5026792;28;20398;-77
2022/11/19 05:51:33;;;;;;;14.70;9.23;;;;;;;;;;5033651;28;20359;-76
2022/11/19 05:53:58;;;;;;;15.43;9.53;;;;;;;;;;5029498;28;20427;-75
2022/11/19 05:56:23;;;;;;;17.60;9.33;;;;;;;;;;5031717;28;20285;-74
2022/11/19 05:58:48;;;;;;;15.73;9.30;;;;;;;;;;5009803;28;20037;-74
2022/11/19 06:01:14;;;;;;;15.50;8.47;;;;;;;;;;5029466;28;20028;-73
2022/11/19 06:03:40;;;;;;;15.20;8.43;;;;;;;;;;5013608;28;20040;-73
2022/11/19 06:06:05;;;;;;;18.35;9.10;;;;;;;;;;5023481;28;20111;-73
2022/11/19 06:08:30;;;;;;;17.77;9.40;;;;;;;;;;5025384;28;20029;-73
2022/11/19 06:10:56;;;;;;;16.00;9.23;;;;;;;;;;5026999;28;20037;-73
2022/11/19 06:13:21;;;;;;;14.20;8.67;;;;;;;;;;5024990;28;20283;-73
2022/11/19 06:15:46;;;;;;;22.83;10.40;;;;;;;;;;5024931;28;20494;-73
2022/11/19 06:18:11;;;;;;;16.23;9.83;;;;;;;;;;5011157;28;20297;-73
2022/11/19 06:20:37;;;;;;;20.17;10.43;;;;;;;;;;5023614;28;21024;-73
2022/11/19 06:23:02;;;;;;;15.67;9.37;;;;;;;;;;5027063;28;20309;-73
2022/11/19 06:25:27;;;;;;;19.70;10.25;;;;;;;;;;5012626;28;20029;-72
2022/11/19 06:27:53;;;;;;;19.03;9.93;;;;;;;;;;5025314;28;20395;-73
2022/11/19 06:30:18;;;;;;;37.43;11.67;;;;;;;;;;5008566;28;20275;-73
2022/11/19 06:32:43;;;;;;;21.42;12.10;;;;;;;;;;5012704;28;20033;-71
2022/11/19 06:35:09;;;;;;;23.23;12.57;;;;;;;;;;5030680;28;20029;-73
2022/11/19 06:37:34;;;;;;;25.70;13.15;;;;;;;;;;5027771;28;20064;-72
2022/11/19 06:40:00;;;;;;;24.58;14.05;;;;;;;;;;5009152;28;20075;-71
2022/11/19 06:42:37;;;;;;;23.65;13.82;;;;;;;;;;5018252;28;20033;-73
2022/11/19 06:45:08;;;;;;;24.90;14.20;;;;;;;;;;5027083;28;20036;-72
2022/11/19 06:47:34;;;;;;;23.08;14.48;;;;;;;;;;5010011;28;20502;-73
2022/11/19 06:49:59;;;;;;;23.63;12.05;;;;;;;;;;5012619;28;20057;-73
2022/11/19 06:52:24;;;;;;;22.80;12.38;;;;;;;;;;5024336;28;20037;-73
2022/11/19 06:54:50;;;;;;;25.20;13.30;;;;;;;;;;5029362;28;20037;-73
2022/11/19 06:57:15;;;;;;;28.27;14.37;;;;;;;;;;5025863;28;20049;-73
2022/11/19 06:59:40;;;;;;;26.97;13.67;;;;;;;;;;5026343;28;20290;-74
2022/11/19 07:02:05;;;;;;;23.00;13.95;;;;;;;;;;5028196;28;20481;-73
2022/11/19 07:04:31;;;;;;;26.95;15.40;;;;;;;;;;5028725;28;20025;-72
2022/11/19 07:06:56;;;;;;;26.30;15.60;;;;;;;;;;5026321;28;20032;-72
2022/11/19 07:09:21;;;;;;;28.53;15.00;;;;;;;;;;5027573;28;20275;-73
2022/11/19 07:11:46;;;;;;;27.53;15.10;;;;;;;;;;5030783;28;20032;-73
2022/11/19 07:14:12;;;;;;;28.40;16.40;;;;;;;;;;5025928;28;20279;-72
2022/11/19 07:16:37;;;;;;;27.83;16.60;;;;;;;;;;5027782;28;20514;-74
2022/11/19 07:19:03;;;;;;;28.27;16.43;;;;;;;;;;5025593;28;20036;-71
2022/11/19 07:21:30;;;;;;;29.95;17.17;;;;;;;5.93;nan;100127.44;5028550;28;20294;-72
2022/11/19 07:23:56;;;;;;;30.80;16.08;;;;;;;5.70;nan;100090.47;5026421;28;20037;-72
2022/11/19 07:26:22;;;;;;;31.63;16.05;;;;;;;5.74;nan;100097.66;5007450;28;20017;-72
2022/11/19 07:28:48;;;;;;;30.17;15.38;;;;;;;6.09;nan;100151.59;5026785;28;20028;-72
2022/11/19 07:31:13;;;;;;;33.35;15.50;;;;;;;6.04;nan;100133.91;5029497;28;20079;-72
2022/11/19 07:33:39;;;;;;;30.33;15.52;;;;;;;6.05;nan;100116.41;5021361;28;20056;-73
2022/11/19 07:36:08;;;;;;;32.40;16.73;;;;;;;6.08;nan;100124.66;5025600;28;20026;-72
2022/11/19 07:38:35;;;;;;;32.90;15.13;;;;;;;6.10;nan;100135.69;5029814;28;20048;-74
2022/11/19 07:41:00;;;;;;;28.17;15.82;;;;;;;6.10;nan;100129.66;5010721;28;20033;-73
2022/11/19 07:43:25;;;;;;;30.35;16.70;;;;;;;6.05;nan;100127.66;5031160;28;20028;-72
2022/11/19 07:45:51;;;;;;;26.65;14.75;;;;;;;6.20;nan;100158.03;5021650;28;20045;-72
2022/11/19 07:48:16;;;;;;;26.30;14.57;;;;;;;6.14;nan;100136.91;5024781;28;20144;-72
2022/11/19 07:50:42;;;;;;;25.92;14.63;;;;;;;6.20;nan;100139.72;5024507;28;20419;-73
2022/11/19 07:53:08;;;;;;;31.23;15.85;;;;;;;6.15;nan;100127.25;5009743;28;20040;-73
2022/11/19 07:55:33;;;;;;;32.22;16.80;;;;;;;6.27;nan;100143.13;5010816;28;20053;-72
2022/11/19 07:57:59;;;;;;;33.65;16.13;;;;;;;6.21;nan;100125.66;5028779;28;20049;-72
2022/11/19 08:00:25;;;;;;;32.08;17.60;;;;;;;6.32;nan;100131.06;5008661;28;20108;-73
2022/11/19 08:02:50;;;;;;;35.05;18.50;;;;;;;6.25;nan;100119.00;5024392;28;20036;-73
2022/11/19 08:05:16;;;;;;;34.85;18.17;;;;;;;6.22;nan;100116.78;5023369;28;20106;-73
2022/11/19 08:07:42;;;;;;;37.50;19.95;;;;;;;6.34;nan;100138.69;5025533;28;20106;-69
2022/11/19 08:10:09;;;;;;;31.02;18.38;;;;;;;6.33;nan;100139.72;5028790;28;20037;-70
2022/11/19 08:12:34;;;;;;;31.83;18.25;;;;;;;6.27;nan;100132.66;5025619;28;20021;-69
2022/11/19 08:15:00;;;;;;;32.85;18.73;;;;;;;6.29;nan;100138.50;5010528;28;20033;-69
2022/11/19 08:20:09;;;;;;;33.28;18.27;;;;;;;6.41;nan;100155.19;5029347;28;20037;-70
2022/11/19 08:22:35;;;;;;;31.20;17.23;;;;;;;6.47;nan;100172.69;5029211;28;20022;-69
2022/11/19 08:25:02;;;;;;;30.55;17.05;;;;;;;6.44;nan;100175.72;5029936;28;20395;-70
2022/11/19 08:27:27;;;;;;;31.23;16.08;;;;;;;6.47;nan;100177.13;5029003;28;20076;-70
2022/11/19 08:29:53;;;;;;;31.05;16.35;;;;;;;6.41;nan;100165.66;5031216;28;20395;-71
2022/11/19 08:32:18;;;;;;;29.38;17.02;;;;;;;6.45;nan;100179.13;5027697;28;20050;-71
2022/11/19 08:34:43;;;;;;;29.27;17.55;;;;;;;6.57;nan;100196.63;5025705;28;20057;-71
2022/11/19 08:37:12;;;;;;;30.63;18.02;;;;;;;6.50;nan;100174.09;5030058;28;20098;-71
2022/11/19 08:39:38;;;;;;;26.73;16.37;;;;;;;6.60;nan;100195.41;5029851;28;20025;-73
2022/11/19 08:44:47;;;;;;;28.75;17.60;;;;;;;6.60;nan;100196.19;5031076;28;20137;-72
2022/11/19 08:47:13;;;;;;;31.33;18.48;;;;;;;6.65;nan;100197.41;5033644;28;20503;-70
2022/11/19 08:49:38;;;;;;;29.88;17.45;;;;;;;6.63;nan;100200.22;5009174;28;20033;-72
2022/11/19 08:52:03;;;;;;;29.52;17.35;;;;;;;6.43;nan;100168.88;5033510;28;20121;-71
2022/11/19 08:54:29;;;;;;;28.73;16.67;;;;;;;6.65;nan;100200.03;5028016;28;20398;-71
2022/11/19 08:56:54;;;;;;;29.98;16.90;;;;;;;6.75;nan;100216.09;5037500;28;20071;-70
2022/11/19 08:59:20;;;;;;;30.33;16.88;;;;;;;6.72;nan;100203.44;5023307;28;20743;-72
2022/11/19 09:01:47;;;;;;;31.48;16.25;;;;;;;6.53;nan;100171.88;5015545;28;20026;-72
2022/11/19 09:04:12;;;;;;;24.00;15.45;;;;;;;6.66;nan;100205.06;5026728;28;20029;-71
2022/11/19 09:06:37;;;;;;;25.77;15.55;;;;;;;6.75;nan;100216.94;5024999;28;20538;-72
2022/11/19 09:09:03;;;;;;;23.65;15.15;;;;;;;6.82;nan;100230.00;5031093;28;20104;-71
2022/11/19 09:11:29;;;;;;;25.45;15.20;;;;;;;6.76;nan;100226.38;5015356;28;20116;-72
2022/11/19 09:13:56;;;;;;;24.95;15.73;;;;;;;6.79;nan;100219.94;5029758;28;20034;-72
2022/11/19 09:16:22;;;;;;;25.05;15.02;;;;;;;6.79;nan;100225.97;5033378;28;20414;-71
2022/11/19 09:18:47;;;;;;;24.15;15.23;;;;;;;6.62;nan;100190.78;5027829;28;20040;-70
2022/11/19 09:21:13;;;;;;;26.00;14.75;;;;;;;6.89;nan;100238.63;5034321;28;20029;-70
2022/11/19 09:23:41;;;;;;;24.30;14.38;;;;;;;6.85;nan;100228.78;5034702;28;20052;-70
2022/11/19 09:26:12;;;;;;;21.08;12.77;;;;;;;6.90;nan;100234.22;5025637;28;20313;-70
2022/11/19 09:28:37;;;;;;;21.35;13.18;;;;;;;6.83;nan;100231.63;5027959;28;20040;-72
2022/11/19 09:31:07;;;;;;;20.58;13.23;;;;;;;6.88;nan;100237.03;5030928;28;20037;-72
2022/11/19 09:33:35;;;;;;;21.35;13.05;;;;;;;6.86;nan;100233.81;5022042;28;20076;-72
2022/11/19 09:36:01;;;;;;;22.13;13.27;;;;;;;6.85;nan;100211.28;5024682;28;20050;-71
2022/11/19 09:38:26;;;;;;;22.98;13.18;;;;;;;6.88;nan;100217.91;5005156;28;20534;-72
2022/11/19 09:40:54;;;;;;;22.23;13.20;;;;;;;6.95;nan;100213.47;5011931;28;20038;-71
2022/11/19 09:43:28;;;;;;;21.70;12.65;;;;;;;6.93;nan;100212.88;5026446;28;20029;-71
2022/11/19 09:46:06;;;;;;;19.70;12.45;;;;;;;6.87;nan;100198.81;5031961;28;20471;-71
2022/11/19 09:48:35;;;;;;;22.08;12.23;;;;;;;6.85;nan;100194.75;5016692;28;20150;-72
2022/11/19 09:51:16;;;;;;;23.10;12.63;;;;;;;6.86;nan;100189.31;5032129;28;20026;-72
2022/11/19 09:53:52;;;;;;;19.85;12.93;;;;;;;6.95;nan;100213.47;5024628;28;20036;-71
2022/11/19 09:56:26;;;;;;;23.05;13.40;;;;;;;6.92;nan;100203.38;5012146;28;20017;-72
2022/11/19 09:58:54;;;;;;;21.67;13.52;;;;;;;6.88;nan;100208.25;5033446;28;20025;-71
2022/11/19 10:01:19;;;;;;;24.73;14.00;;;;;;;6.93;nan;100213.66;5013603;28;20449;-73
2022/11/19 10:03:47;;;;;;;22.17;13.80;;;;;;;6.98;nan;100210.44;5025004;28;20092;-72
2022/11/19 10:06:13;;;;;;;21.40;13.15;;;;;;;7.01;nan;100221.28;5029996;28;20024;-72
2022/11/19 10:08:41;;;;;;;24.05;14.25;;;;;;;7.05;nan;100216.47;5029187;28;20030;-73
2022/11/19 10:11:32;;;;;;;28.25;15.13;;;;;;;7.11;nan;100218.25;5026210;28;20021;-72
2022/11/19 10:14:05;;;;;;;25.40;14.20;;;;;;;7.13;nan;100228.50;5012251;28;20064;-72
2022/11/19 10:16:40;;;;;;;22.17;13.98;;;;;;;;;;5027666;28;20025;-72
2022/11/19 10:19:11;;;;;;;22.38;13.05;;;;;;;;;;5027369;28;20025;-71
2022/11/19 10:21:55;;;;;;;23.48;13.07;;;;;;;;;;5029606;28;20116;-72
2022/11/19 10:24:25;;;;;;;20.10;12.55;;;;;;;;;;5021936;28;20033;-72
2022/11/19 10:26:58;;;;;;;27.02;12.43;;;;;;;;;;5018905;28;20029;-72
2022/11/19 10:29:26;;;;;;;21.00;12.25;;;;;;;;;;5020961;28;20108;-72
2022/11/19 10:31:51;;;;;;;18.58;11.93;;;;;;;;;;5018113;28;20728;-73
2022/11/19 10:34:21;;;;;;;20.88;12.82;;;;;;;;;;5018306;28;20057;-73
2022/11/19 10:36:51;;;;;;;28.30;14.40;;;;;;;;;;5025491;28;20480;-71
2022/11/19 10:39:28;;;;;;;21.33;11.95;;;;;;;;;;5018132;28;20586;-71
2022/11/19 10:42:18;;;;;;;23.17;12.43;;;;;;;;;;5025630;28;20071;-72
2022/11/19 10:45:04;;;;;;;24.70;11.70;;;;;;;;;;5027986;28;20043;-71
2022/11/19 10:47:35;;;;;;;21.02;12.60;;;;;;;;;;5025973;28;20044;-72
2022/11/19 10:50:01;;;;;;;19.77;11.45;;;;;;;;;;5020617;28;20033;-73
2022/11/19 10:52:38;;;;;;;22.20;11.67;;;;;;;;;;5008086;28;20538;-73
2022/11/19 10:55:12;;;;;;;21.08;11.52;;;;;;;;;;5026025;28;20494;-72
2022/11/19 10:57:38;;;;;;;17.00;10.73;;;;;;;;;;5020432;28;20029;-73
2022/11/19 11:00:03;;;;;;;20.40;10.73;;;;;;;;;;5011322;28;20410;-74
2022/11/19 11:02:38;;;;;;;21.70;12.43;;;;;;;;;;5025019;28;20487;-75
2022/11/19 11:05:05;;;;;;;18.02;11.23;;;;;;;;;;5007523;28;20037;-75
2022/11/19 11:07:43;;;;;;;20.52;11.63;;;;;;;;;;5010367;28;20033;-74
2022/11/19 11:10:24;;;;;;;20.70;11.15;;;;;;;;;;5010734;28;20048;-75
2022/11/19 11:15:33;;;;;;;23.92;11.50;;;;;;;;;;5025364;28;20091;-75
2022/11/19 11:18:03;;;;;;;20.65;11.73;;;;;;;;;;5025135;28;20033;-75
2022/11/19 11:20:28;;;;;;;;;;;;;;;;;;5027735;28;20021;-75
2022/11/19 11:23:04;;;;;;;18.00;10.38;;;;;;;;;;5017382;28;19981;-75
2022/11/19 11:25:29;;;;;;;19.65;11.20;;;;;;;;;;5024359;28;20028;-75
2022/11/19 11:28:14;;;;;;;17.25;11.00;;;;;;;;;;5024496;28;20368;-75
2022/11/19 11:30:52;;;;;;;18.50;10.73;;;;;;;;;;5028789;28;20033;-75
2022/11/19 11:33:37;;;;;;;20.13;11.02;;;;;;;;;;5022900;28;20447;-75
2022/11/19 11:36:11;;;;;;;18.90;10.70;;;;;;;;;;5024028;28;20591;-75
2022/11/19 11:38:43;;;;;;;18.95;11.23;;;;;;;;;;5027709;28;20394;-75
2022/11/19 11:41:10;;;;;;;17.80;11.05;;;;;;;;;;5013438;28;20032;-75
2022/11/19 11:43:38;;;;;;;17.98;10.82;;;;;;;;;;5005312;28;20031;-75
2022/11/19 11:46:05;;;;;;;20.05;11.55;;;;;;;;;;5023628;28;20544;-74
2022/11/19 11:48:42;;;;;;;20.42;10.88;;;;;;;;;;5009250;28;20034;-74
2022/11/19 11:51:23;;;;;;;16.35;10.25;;;;;;;;;;5012367;28;20080;-76
2022/11/19 11:54:15;;;;;;;19.35;11.82;;;;;;;7.62;nan;100224.50;5006311;28;20403;-76
2022/11/19 11:56:41;;;;;;;17.63;10.52;;;;;;;;;;5019920;28;20383;-76
2022/11/19 11:59:13;;;;;;;18.20;10.98;;;;;;;;;;5027396;28;20032;-76
2022/11/19 12:01:51;;;;;;;16.90;10.07;;;;;;;;;;5029984;28;20378;-76
2022/11/19 12:04:16;;;;;;;18.20;10.73;;;;;;;;;;5008303;28;20018;-76
2022/11/19 12:06:49;;;;;;;19.25;11.00;;;;;;;;;;5014222;28;20029;-75
2022/11/19 12:09:19;;;;;;;17.77;10.63;;;;;;;;;;5029453;28;20772;-76
2022/11/19 12:11:57;;;;;;;19.73;11.00;;;;;;;;;;5023123;28;20084;-76
2022/11/19 12:14:23;;;;;;;18.17;10.85;;;;;;;;;;5023906;28;20033;-76
2022/11/19 12:16:52;;;;;;;17.08;10.10;;;;;;;;;;5029445;28;20489;-75
2022/11/19 12:19:24;;;;;;;19.05;10.60;;;;;;;;;;5012217;28;20060;-76
2022/11/19 12:22:02;;;;;;;19.85;10.63;;;;;;;;;;5019069;28;20025;-76
2022/11/19 12:24:33;;;;;;;23.20;11.13;;;;;;;;;;5011836;28;20024;-76
2022/11/19 12:27:20;;;;;;;17.50;9.82;;;;;;;;;;5008610;28;20124;-75
2022/11/19 12:29:45;;;;;;;16.58;9.43;;;;;;;;;;5016981;28;20034;-76
2022/11/19 12:32:20;;;;;;;19.87;9.73;;;;;;;;;;5007558;28;20510;-76
2022/11/19 12:34:54;;;;;;;15.75;9.32;;;;;;;;;;5022166;28;20033;-76
2022/11/19 12:37:38;;;;;;;18.50;10.27;;;;;;;;;;5030843;28;20044;-76
2022/11/19 12:40:09;;;;;;;16.83;9.43;;;;;;;;;;5023560;28;20045;-76
2022/11/19 12:42:53;;;;;;;17.83;9.60;;;;;;;;;;5010526;28;20030;-76
2022/11/19 12:45:22;;;;;;;16.65;9.82;;;;;;;;;;5013170;28;20021;-75
2022/11/19 12:47:53;;;;;;;17.45;10.10;;;;;;;;;;5008021;28;20780;-76
2022/11/19 12:50:27;;;;;;;19.23;10.30;;;;;;;;;;5026535;28;20083;-76
2022/11/19 12:52:59;;;;;;;19.63;10.73;;;;;;;;;;5026467;28;20032;-76
2022/11/19 12:55:29;;;;;;;17.50;10.95;;;;;;;;;;5026169;28;20033;-76
2022/11/19 12:58:13;;;;;;;19.08;11.05;;;;;;;;;;5028617;28;20053;-76
2022/11/19 13:00:43;;;;;;;19.17;11.18;;;;;;;;;;5012478;28;20029;-76
2022/11/19 13:03:19;;;;;;;17.88;10.57;;;;;;;;;;5028021;28;20021;-76
2022/11/19 13:05:56;;;;;;;20.83;11.20;;;;;;;;;;5007037;28;20026;-77
2022/11/19 13:08:40;;;;;;;18.90;11.35;;;;;;;;;;5023384;28;20080;-76
2022/11/19 13:11:11;;;;;;;19.33;10.85;;;;;;;;;;5022117;28;20135;-77
2022/11/19 13:13:38;;;;;;;17.45;10.90;;;;;;;;;;5004314;28;20022;-77
2022/11/19 13:16:04;;;;;;;18.52;10.98;;;;;;;;;;5017824;28;20033;-79
2022/11/19 13:18:31;;;;;;;23.05;12.40;;;;;;;;;;5010798;28;20076;-78
2022/11/19 13:21:02;;;;;;;21.45;11.50;;;;;;;;;;5014485;28;20033;-78
2022/11/19 13:23:31;;;;;;;21.92;12.05;;;;;;;;;;5029097;28;20441;-78
2022/11/19 13:25:58;;;;;;;20.70;12.32;;;;;;;;;;5008814;28;20423;-78
2022/11/19 13:28:27;;;;;;;18.25;11.52;;;;;;;;;;5016276;28;20037;-78
2022/11/19 13:30:54;;;;;;;20.13;10.60;;;;;;;;;;5004729;28;20021;-78
2022/11/19 13:33:23;;;;;;;22.05;12.02;;;;;;;;;;5000055;28;20121;-78
2022/11/19 13:35:48;;;;;;;;;;;;;;;;;;5005843;28;20029;-80
2022/11/19 13:38:32;;;;;;;17.00;11.07;;;;;;;;;;5016759;28;19918;-78
2022/11/19 13:41:04;;;;;;;18.27;10.93;;;;;;;;;;5017967;28;20037;-79
2022/11/19 13:46:19;;;;;;;18.08;10.80;;;;;;;;;;5022767;28;20052;-77
2022/11/19 13:48:51;;;;;;;19.65;10.85;;;;;;;;;;5016132;28;20109;-77
2022/11/19 13:51:25;;;;;;;22.73;10.38;;;;;;;;;;5009404;28;20478;-77
2022/11/19 13:53:51;;;;;;;18.90;10.45;;;;;;;;;;5017304;28;20038;-76
2022/11/19 13:56:16;;;;;;;17.65;10.40;;;;;;;;;;5017739;28;20040;-76
2022/11/19 13:58:46;;;;;;;17.73;10.73;;;;;;;;;;5016203;28;20131;-73